Time;durP1;ratioP1;P1;durP2;ratioP2;P2;SDS_P1;SDS_P2;PMS_P1;PMS_P2;Temp;Humidity;BMP_temperature;BMP_pressure;BME280_temperature;BME280_humidity;BME280_pressure;Samples;Min_cycle;Max_cycle;Signal;HPM_P1;HPM_P2
2021/06/10 00:02:14;;;;;;;12.40;11.20;;;;;;;;;;3585108;40;20028;-59
2021/06/10 00:04:40;;;;;;;10.75;9.07;;;;;;;;;;3587094;40;20043;-59
2021/06/10 00:07:06;;;;;;;10.95;9.57;;;;;;;;;;3586382;40;20036;-59
2021/06/10 00:09:31;;;;;;;10.60;9.50;;;;;;;;;;3586537;40;20358;-60
2021/06/10 00:11:57;;;;;;;10.02;9.02;;;;;;;;;;3586981;40;20028;-59
2021/06/10 00:14:23;;;;;;;10.02;9.02;;;;;;;;;;3586246;40;20032;-59
2021/06/10 00:16:48;;;;;;;11.43;10.23;;;;;;;;;;3589623;40;20395;-60
2021/06/10 00:19:13;;;;;;;11.48;10.38;;;;;;;;;;3587614;40;20071;-59
2021/06/10 00:21:40;;;;;;;13.35;11.02;;;;;;;;;;3586963;40;20631;-59
2021/06/10 00:24:07;;;;;;;11.18;10.07;;;;;;;;;;3586186;40;20279;-59
2021/06/10 00:26:32;;;;;;;16.85;10.13;;;;;;;;;;3586173;40;20371;-59
2021/06/10 00:28:58;;;;;;;12.38;11.13;;;;;;;;;;3586691;40;20044;-59
2021/06/10 00:31:23;;;;;;;13.32;11.18;;;;;;;;;;3587045;40;20037;-59
2021/06/10 00:33:49;;;;;;;12.63;11.43;;;;;;;;;;3586005;40;20855;-60
2021/06/10 00:36:14;;;;;;;14.50;10.98;;;;;;;;;;3587517;40;20449;-60
2021/06/10 00:38:39;;;;;;;13.60;12.07;;;;;;;;;;3587046;40;20064;-59
2021/06/10 00:41:05;;;;;;;14.18;12.05;;;;;;;;;;3584017;40;20415;-59
2021/06/10 00:43:30;;;;;;;13.27;11.98;;;;;;;;;;3586330;40;20152;-61
2021/06/10 00:45:56;;;;;;;14.88;12.57;;;;;;;;;;3586358;40;20523;-60
2021/06/10 00:48:22;;;;;;;13.00;11.75;;;;;;;;;;3587496;40;20041;-60
2021/06/10 00:50:48;;;;;;;12.43;11.23;;;;;;;;;;3578594;40;20165;-59
2021/06/10 00:53:21;;;;;;;13.68;12.40;;;;;;;;;;3586777;40;20130;-60
2021/06/10 00:55:55;;;;;;;15.80;13.43;;;;;;;;;;3586106;40;20032;-60
2021/06/10 00:58:21;;;;;;;12.73;11.35;;;;;;;;;;3586347;40;20043;-60
2021/06/10 01:00:47;;;;;;;16.48;11.35;;;;;;;;;;3586338;40;20367;-60
2021/06/10 01:03:13;;;;;;;14.27;10.80;;;;;;;;;;3586329;40;20108;-60
2021/06/10 01:05:41;;;;;;;12.50;11.35;;;;;;;;;;3586330;40;20298;-60
2021/06/10 01:08:15;;;;;;;12.43;11.13;;;;;;;;;;3586612;40;20037;-60
2021/06/10 01:10:55;;;;;;;14.23;12.05;;;;;;;;;;3586138;40;20052;-60
2021/06/10 01:13:49;;;;;;;13.25;12.00;;;;;;;;;;3585905;40;20138;-60
2021/06/10 01:16:19;;;;;;;12.77;11.05;;;;;;;;;;3585855;40;20025;-60
2021/06/10 01:18:46;;;;;;;14.10;12.80;;;;;;;;;;3587509;40;20560;-60
2021/06/10 01:21:12;;;;;;;16.80;12.38;;;;;;;;;;3576440;40;20255;-60
2021/06/10 01:23:50;;;;;;;15.68;14.10;;;;;;;;;;3586053;40;20117;-60
2021/06/10 01:26:20;;;;;;;16.00;13.75;;;;;;;;;;3586328;40;20047;-60
2021/06/10 01:28:49;;;;;;;15.13;13.55;;;;;;;;;;3586263;40;20049;-60
2021/06/10 01:31:18;;;;;;;19.75;12.70;;;;;;;;;;3584588;40;20032;-60
2021/06/10 01:33:49;;;;;;;13.57;12.20;;;;;;;;;;3586073;40;20276;-60
2021/06/10 01:36:17;;;;;;;13.48;12.00;;;;;;;;;;3585227;40;20142;-60
2021/06/10 01:38:49;;;;;;;21.75;12.05;;;;;;;;;;3585046;40;20040;-60
2021/06/10 01:41:18;;;;;;;13.75;12.13;;;;;;;;;;3582661;40;20053;-60
2021/06/10 01:43:45;;;;;;;13.55;12.23;;;;;;;;;;3576885;40;20539;-60
2021/06/10 01:46:11;;;;;;;16.15;12.02;;;;;;;;;;3586189;40;20280;-60
2021/06/10 01:48:39;;;;;;;16.27;12.50;;;;;;;;;;3586488;39;20047;-60
2021/06/10 01:51:05;;;;;;;11.10;10.02;;;;;;;;;;3586224;40;20055;-60
2021/06/10 01:53:31;;;;;;;12.23;11.02;;;;;;;;;;3585999;40;20517;-60
2021/06/10 01:56:00;;;;;;;13.15;11.80;;;;;;;;;;3586178;40;20507;-60
2021/06/10 01:58:26;;;;;;;11.27;10.13;;;;;;;;;;3584852;40;20035;-60
2021/06/10 02:00:53;;;;;;;12.00;10.90;;;;;;;;;;3583798;40;20125;-60
2021/06/10 02:03:22;;;;;;;12.75;11.45;;;;;;;;;;3577580;40;20039;-60
2021/06/10 02:05:50;;;;;;;12.25;11.13;;;;;;;;;;3585970;40;20042;-60
2021/06/10 02:08:17;;;;;;;13.93;12.60;;;;;;;;;;3583119;40;20133;-60
2021/06/10 02:10:46;;;;;;;13.35;11.93;;;;;;;;;;3582975;40;20029;-60
2021/06/10 02:13:13;;;;;;;13.05;11.75;;;;;;;;;;3586024;40;20032;-60
2021/06/10 02:15:40;;;;;;;13.45;12.07;;;;;;;;;;3587190;40;20036;-61
2021/06/10 02:18:06;;;;;;;14.60;13.07;;;;;;;;;;3586966;40;20396;-60
2021/06/10 02:20:31;;;;;;;13.30;11.98;;;;;;;;;;3584991;40;20121;-60
2021/06/10 02:22:58;;;;;;;17.38;11.55;;;;;;;;;;3586674;40;20039;-60
2021/06/10 02:25:23;;;;;;;13.52;12.23;;;;;;;;;;3587207;40;20118;-60
2021/06/10 02:27:49;;;;;;;16.75;12.23;;;;;;;;;;3587222;40;20067;-60
2021/06/10 02:30:15;;;;;;;14.35;12.95;;;;;;;;;;3587634;40;20025;-60
2021/06/10 02:32:41;;;;;;;15.55;12.95;;;;;;;;;;3586935;40;20669;-60
2021/06/10 02:35:09;;;;;;;14.50;13.00;;;;;;;;;;3586175;40;20064;-60
2021/06/10 02:37:37;;;;;;;14.05;12.65;;;;;;;;;;3588028;40;20368;-60
2021/06/10 02:40:10;;;;;;;13.25;11.93;;;;;;;;;;3587053;40;20040;-60
2021/06/10 02:42:36;;;;;;;16.65;11.90;;;;;;;;;;3586778;40;20116;-60
2021/06/10 02:45:04;;;;;;;13.05;11.85;;;;;;;;;;3578927;40;20048;-60
2021/06/10 02:47:30;;;;;;;14.57;13.20;;;;;;;;;;3587202;40;20080;-60
2021/06/10 02:49:57;;;;;;;12.50;10.88;;;;;;;;;;3586841;40;20033;-60
2021/06/10 02:52:23;;;;;;;11.70;9.18;;;;;;;;;;3585725;40;20398;-60
2021/06/10 02:54:49;;;;;;;11.02;9.98;;;;;;;;;;3587790;40;20300;-60
2021/06/10 02:57:19;;;;;;;12.68;10.52;;;;;;;;;;3587455;40;20033;-61
2021/06/10 02:59:45;;;;;;;14.52;13.20;;;;;;;;;;3585858;40;20093;-60
2021/06/10 03:02:12;;;;;;;15.32;13.35;;;;;;;;;;3584834;40;20052;-60
2021/06/10 03:04:41;;;;;;;17.20;13.43;;;;;;;;;;3587248;40;20129;-61
2021/06/10 03:07:07;;;;;;;14.48;13.05;;;;;;;;;;3579040;40;20491;-60
2021/06/10 03:09:33;;;;;;;12.73;11.52;;;;;;;;;;3586071;40;20037;-60
2021/06/10 03:12:00;;;;;;;13.57;12.23;;;;;;;;;;3586475;40;20031;-60
2021/06/10 03:14:25;;;;;;;13.35;12.07;;;;;;;;;;3586772;40;20352;-60
2021/06/10 03:16:51;;;;;;;13.35;12.15;;;;;;;;;;3588572;40;20032;-60
2021/06/10 03:19:18;;;;;;;13.27;12.07;;;;;;;;;;3587360;40;20044;-60
2021/06/10 03:21:45;;;;;;;15.90;14.40;;;;;;;;;;3587102;40;20037;-60
2021/06/10 03:24:11;;;;;;;15.15;13.23;;;;;;;;;;3586166;40;20493;-60
2021/06/10 03:26:37;;;;;;;17.48;13.70;;;;;;;;;;3586901;40;20199;-61
2021/06/10 03:29:05;;;;;;;14.38;11.30;;;;;;;;;;3588446;40;20347;-61
2021/06/10 03:31:31;;;;;;;15.73;13.13;;;;;;;;;;3586002;40;20033;-61
2021/06/10 03:33:57;;;;;;;13.07;11.82;;;;;;;;;;3586849;40;20040;-61
2021/06/10 03:36:24;;;;;;;14.15;11.10;;;;;;;;;;3585519;40;20084;-61
2021/06/10 03:38:51;;;;;;;14.77;13.00;;;;;;;;;;3589867;40;20032;-59
2021/06/10 03:41:17;;;;;;;13.82;12.07;;;;;;;;;;3587086;40;20059;-61
2021/06/10 03:43:43;;;;;;;17.55;12.40;;;;;;;;;;3586949;40;20051;-61
2021/06/10 03:46:09;;;;;;;13.45;12.25;;;;;;;;;;3585436;40;20048;-61
2021/06/10 03:48:39;;;;;;;13.32;12.02;;;;;;;;;;3586131;40;20136;-61
2021/06/10 03:51:10;;;;;;;14.43;11.95;;;;;;;;;;3584896;40;20052;-61
2021/06/10 03:53:36;;;;;;;15.85;13.23;;;;;;;;;;3587048;40;20383;-61
2021/06/10 03:56:01;;;;;;;14.10;12.68;;;;;;;;;;3586838;40;20040;-61
2021/06/10 03:58:26;;;;;;;14.10;12.63;;;;;;;;;;3586162;40;20122;-61
2021/06/10 04:00:52;;;;;;;14.38;12.95;;;;;;;;;;3586250;40;20372;-61
2021/06/10 04:03:17;;;;;;;15.68;13.85;;;;;;;;;;3578397;40;20032;-61
2021/06/10 04:05:42;;;;;;;15.63;13.40;;;;;;;;;;3587221;40;20033;-61
2021/06/10 04:08:08;;;;;;;16.13;13.27;;;;;;;;;;3587450;40;20387;-61
2021/06/10 04:10:33;;;;;;;16.10;12.93;;;;;;;;;;3585655;40;20056;-61
2021/06/10 04:12:59;;;;;;;28.35;13.93;;;;;;;;;;3586008;40;20032;-61
2021/06/10 04:15:24;;;;;;;15.50;13.82;;;;;;;;;;3584838;40;20522;-61
2021/06/10 04:17:50;;;;;;;15.73;13.32;;;;;;;;;;3586566;40;20036;-61
2021/06/10 04:20:16;;;;;;;15.40;12.40;;;;;;;;;;3576374;40;20041;-61
2021/06/10 04:22:41;;;;;;;19.75;13.43;;;;;;;;;;3585648;40;20058;-61
2021/06/10 04:25:08;;;;;;;13.77;11.85;;;;;;;;;;3586815;40;20375;-61
2021/06/10 04:27:33;;;;;;;14.70;12.98;;;;;;;;;;3586214;40;20073;-61
2021/06/10 04:29:59;;;;;;;13.52;12.20;;;;;;;;;;3586201;40;20029;-61
2021/06/10 04:32:25;;;;;;;17.70;11.80;;;;;;;;;;3584710;40;20029;-61
2021/06/10 04:34:50;;;;;;;11.73;10.52;;;;;;;;;;3586447;40;20036;-61
2021/06/10 04:37:17;;;;;;;13.73;11.55;;;;;;;;;;3585682;40;20372;-61
2021/06/10 04:39:43;;;;;;;11.43;10.27;;;;;;;;;;3585447;40;20441;-61
2021/06/10 04:42:09;;;;;;;12.73;10.48;;;;;;;;;;3585362;40;20060;-61
2021/06/10 04:44:34;;;;;;;14.85;13.38;;;;;;;;;;3586082;40;20047;-61
2021/06/10 04:47:02;;;;;;;15.43;13.07;;;;;;;;;;3586459;40;20252;-61
2021/06/10 04:49:27;;;;;;;15.02;13.45;;;;;;;;;;3586392;40;20043;-61
2021/06/10 04:51:53;;;;;;;13.48;12.25;;;;;;;;;;3586502;40;20257;-61
2021/06/10 04:54:18;;;;;;;14.43;13.13;;;;;;;;;;3586397;40;20037;-61
2021/06/10 04:56:43;;;;;;;14.68;13.18;;;;;;;;;;3587829;40;20126;-61
2021/06/10 04:59:09;;;;;;;13.70;12.40;;;;;;;;;;3586276;40;20067;-61
2021/06/10 05:01:34;;;;;;;16.48;13.52;;;;;;;;;;3585593;40;20028;-61
2021/06/10 05:03:59;;;;;;;15.57;13.85;;;;;;;;;;3583630;40;20029;-61
2021/06/10 05:06:25;;;;;;;16.35;14.82;;;;;;;;;;3586919;40;20033;-61
2021/06/10 05:08:50;;;;;;;16.95;15.27;;;;;;;;;;3586178;40;20045;-61
2021/06/10 05:11:16;;;;;;;16.20;14.63;;;;;;;;;;3584458;40;20033;-61
2021/06/10 05:13:41;;;;;;;15.30;13.80;;;;;;;;;;3585786;40;20602;-61
2021/06/10 05:16:07;;;;;;;15.55;14.10;;;;;;;;;;3585780;40;20130;-61
2021/06/10 05:18:32;;;;;;;15.70;14.13;;;;;;;;;;3585217;40;20044;-61
2021/06/10 05:20:57;;;;;;;16.67;15.07;;;;;;;;;;3583132;40;20041;-61
2021/06/10 05:23:23;;;;;;;18.25;14.73;;;;;;;;;;3586057;40;20153;-61
2021/06/10 05:25:48;;;;;;;18.67;14.27;;;;;;;;;;3586552;40;20482;-61
2021/06/10 05:28:14;;;;;;;16.30;14.68;;;;;;;;;;3585805;40;20064;-61
2021/06/10 05:30:39;;;;;;;26.70;14.10;;;;;;;;;;3585142;40;20270;-62
2021/06/10 05:33:05;;;;;;;18.05;16.33;;;;;;;;;;3585543;40;20114;-60
2021/06/10 05:35:30;;;;;;;19.55;17.02;;;;;;;;;;3586591;40;20275;-61
2021/06/10 05:37:56;;;;;;;19.95;17.95;;;;;;;;;;3585201;40;20118;-61
2021/06/10 05:40:21;;;;;;;19.33;17.50;;;;;;;;;;3585569;40;20055;-60
2021/06/10 05:42:46;;;;;;;20.27;18.08;;;;;;;;;;3583245;40;20063;-60
2021/06/10 05:45:12;;;;;;;24.50;18.73;;;;;;;;;;3584758;40;20080;-60
2021/06/10 05:47:38;;;;;;;22.88;17.13;;;;;;;;;;3587208;39;20466;-61
2021/06/10 05:50:05;;;;;;;20.83;18.83;;;;;;;;;;3587467;40;20392;-60
2021/06/10 05:52:30;;;;;;;20.90;18.73;;;;;;;;;;3586250;40;20245;-60
2021/06/10 05:54:57;;;;;;;19.80;17.77;;;;;;;;;;3587266;40;20084;-60
2021/06/10 06:01:25;;;;;;;22.92;20.63;;;;;;;;;;3578317;40;20041;-60
2021/06/10 06:04:13;;;;;;;20.42;18.17;;;;;;;;;;3581995;40;20040;-61
2021/06/10 06:06:39;;;;;;;22.27;19.88;;;;;;;;;;3576998;40;20133;-61
2021/06/10 06:09:08;;;;;;;26.05;17.80;;;;;;;;;;3585014;40;20055;-62
2021/06/10 06:11:35;;;;;;;20.08;17.98;;;;;;;;;;3575129;40;20040;-61
2021/06/10 06:14:08;;;;;;;18.58;16.77;;;;;;;;;;3586415;40;20029;-59
2021/06/10 06:16:42;;;;;;;20.08;17.95;;;;;;;;;;3586227;40;20048;-60
2021/06/10 06:19:11;;;;;;;23.73;18.58;;;;;;;;;;3585308;40;20126;-60
2021/06/10 06:21:36;;;;;;;21.08;17.67;;;;;;;;;;3584720;40;20032;-60
2021/06/10 06:24:03;;;;;;;19.67;16.98;;;;;;;;;;3585090;40;20055;-60
2021/06/10 06:26:28;;;;;;;18.50;16.50;;;;;;;;;;3584297;40;20047;-60
2021/06/10 06:28:58;;;;;;;18.90;17.00;;;;;;;;;;3576605;40;20379;-60
2021/06/10 06:31:24;;;;;;;18.50;16.40;;;;;;;;;;3583891;40;20033;-60
2021/06/10 06:33:49;;;;;;;18.58;16.65;;;;;;;;;;3584731;40;20032;-60
2021/06/10 06:36:15;;;;;;;18.38;16.58;;;;;;;;;;3586195;40;20029;-60
2021/06/10 06:38:40;;;;;;;17.52;15.75;;;;;;;;;;3585209;40;20064;-60
2021/06/10 06:41:06;;;;;;;18.63;16.75;;;;;;;;;;3583597;40;20066;-60
2021/06/10 06:43:32;;;;;;;18.20;16.33;;;;;;;;;;3583516;40;20149;-61
2021/06/10 06:45:58;;;;;;;19.33;16.00;;;;;;;;;;3586804;40;20043;-61
2021/06/10 06:48:23;;;;;;;20.02;16.50;;;;;;;;;;3585582;40;20036;-61
2021/06/10 06:50:49;;;;;;;17.60;15.85;;;;;;;;;;3585750;40;20096;-61
2021/06/10 06:53:14;;;;;;;16.10;14.15;;;;;;;;;;3586289;40;20071;-60
2021/06/10 06:55:40;;;;;;;16.85;14.32;;;;;;;;;;3586299;40;20272;-60
2021/06/10 06:58:05;;;;;;;19.77;14.50;;;;;;;;;;3584769;40;20053;-61
2021/06/10 07:00:31;;;;;;;15.70;14.10;;;;;;;;;;3584468;40;20115;-61
2021/06/10 07:02:56;;;;;;;17.75;15.18;;;;;;;;;;3587198;40;20663;-60
2021/06/10 07:05:22;;;;;;;16.25;14.52;;;;;;;;;;3587937;40;20041;-60
2021/06/10 07:07:47;;;;;;;20.10;13.98;;;;;;;;;;3586483;40;20461;-60
2021/06/10 07:10:13;;;;;;;15.20;13.70;;;;;;;;;;3585948;40;20283;-60
2021/06/10 07:12:38;;;;;;;14.15;12.68;;;;;;;;;;3584480;40;20125;-60
2021/06/10 07:15:04;;;;;;;14.95;13.40;;;;;;;;;;3586559;40;20507;-60
2021/06/10 07:17:30;;;;;;;14.85;13.30;;;;;;;;;;3583935;40;20117;-60
2021/06/10 07:19:57;;;;;;;14.57;12.65;;;;;;;;;;3584129;40;20047;-60
2021/06/10 07:22:23;;;;;;;14.77;13.27;;;;;;;;;;3585281;40;20044;-60
2021/06/10 07:24:49;;;;;;;16.45;13.95;;;;;;;;;;3585824;40;20048;-59
2021/06/10 07:27:18;;;;;;;17.73;12.43;;;;;;;;;;3585695;40;20039;-60
2021/06/10 07:29:44;;;;;;;19.27;11.60;;;;;;;;;;3577127;40;20086;-59
2021/06/10 07:32:09;;;;;;;13.65;11.10;;;;;;;;;;3585230;40;20372;-60
2021/06/10 07:34:37;;;;;;;13.80;12.50;;;;;;;;;;3586646;40;20356;-60
2021/06/10 07:37:03;;;;;;;13.85;12.45;;;;;;;;;;3584596;40;20069;-60
2021/06/10 07:39:28;;;;;;;14.57;12.40;;;;;;;;;;3582666;40;107956;-58
2021/06/10 07:41:55;;;;;;;13.93;12.48;;;;;;;;;;3584859;40;20574;-59
2021/06/10 07:44:20;;;;;;;14.75;13.35;;;;;;;;;;3586505;40;20073;-59
2021/06/10 07:46:46;;;;;;;12.68;11.45;;;;;;;;;;3587681;40;20121;-60
2021/06/10 07:49:11;;;;;;;14.07;11.20;;;;;;;;;;3584352;40;20370;-60
2021/06/10 07:51:37;;;;;;;19.58;11.00;;;;;;;;;;3586754;40;20465;-60
2021/06/10 07:54:02;;;;;;;12.50;11.02;;;;;;;;;;3586911;40;20037;-60
2021/06/10 07:56:27;;;;;;;15.48;10.77;;;;;;;;;;3585205;40;20039;-59
2021/06/10 07:58:53;;;;;;;12.82;11.48;;;;;;;;;;3584331;40;20049;-59
2021/06/10 08:01:18;;;;;;;11.27;10.27;;;;;;;;;;3585616;40;20039;-59
2021/06/10 08:03:45;;;;;;;12.57;11.27;;;;;;;;;;3584748;40;20265;-59
2021/06/10 08:06:11;;;;;;;11.75;10.63;;;;;;;;;;3585837;40;20360;-59
2021/06/10 08:08:37;;;;;;;18.90;11.77;;;;;;;;;;3585449;40;20044;-59
2021/06/10 08:11:06;;;;;;;15.38;11.75;;;;;;;;;;3584981;40;20391;-61
2021/06/10 08:13:32;;;;;;;12.40;11.10;;;;;;;;;;3585062;40;20406;-59
2021/06/10 08:15:58;;;;;;;13.35;11.38;;;;;;;;;;3585384;40;20158;-59
2021/06/10 08:18:26;;;;;;;12.48;10.63;;;;;;;;;;3584557;40;20049;-60
2021/06/10 08:20:52;;;;;;;11.80;10.57;;;;;;;;;;3582122;40;20137;-59
2021/06/10 08:23:18;;;;;;;12.00;10.73;;;;;;;;;;3584882;40;20041;-59
2021/06/10 08:25:44;;;;;;;14.15;10.18;;;;;;;;;;3585526;40;20035;-59
2021/06/10 08:28:11;;;;;;;12.65;11.48;;;;;;;;;;3582869;40;20045;-59
2021/06/10 08:30:36;;;;;;;22.75;12.45;;;;;;;;;;3585046;40;20043;-59
2021/06/10 08:33:02;;;;;;;21.00;12.98;;;;;;;;;;3577997;40;20041;-58
2021/06/10 08:35:27;;;;;;;13.73;10.75;;;;;;;;;;3586112;40;20049;-59
2021/06/10 08:37:53;;;;;;;13.93;9.48;;;;;;;;;;3586378;40;20056;-59
2021/06/10 08:40:19;;;;;;;11.75;10.40;;;;;;;;;;3585985;40;20045;-59
2021/06/10 08:42:45;;;;;;;10.23;9.27;;;;;;;;;;3577695;40;20044;-59
2021/06/10 08:45:12;;;;;;;13.65;11.30;;;;;;;;;;3586896;40;20040;-59
2021/06/10 08:47:40;;;;;;;17.05;11.10;;;;;;;;;;3586748;40;20128;-59
2021/06/10 08:50:07;;;;;;;16.05;11.15;;;;;;;;;;3584684;40;20391;-59
2021/06/10 08:52:33;;;;;;;10.95;9.80;;;;;;;;;;3584646;40;20060;-58
2021/06/10 08:54:58;;;;;;;12.60;10.68;;;;;;;;;;3586701;40;20040;-60
2021/06/10 08:57:24;;;;;;;11.75;10.60;;;;;;;;;;3586230;40;20069;-59
2021/06/10 08:59:49;;;;;;;12.75;11.45;;;;;;;;;;3585221;40;20028;-59
2021/06/10 09:02:15;;;;;;;12.98;11.68;;;;;;;;;;3585473;40;20028;-59
2021/06/10 09:04:40;;;;;;;12.00;9.35;;;;;;;;;;3587021;40;20313;-57
2021/06/10 09:07:08;;;;;;;10.38;9.27;;;;;;;;;;3585994;40;20118;-59
2021/06/10 09:09:36;;;;;;;11.82;9.63;;;;;;;;;;3584331;40;20409;-61
2021/06/10 09:12:06;;;;;;;10.85;9.50;;;;;;;;;;3576965;40;20272;-60
2021/06/10 09:14:55;;;;;;;11.25;10.00;;;;;;;;;;3585590;40;20501;-60
2021/06/10 09:17:35;;;;;;;12.30;9.52;;;;;;;;;;3584803;40;20047;-64
2021/06/10 09:20:03;;;;;;;15.38;8.70;;;;;;;;;;3584709;40;20043;-69
2021/06/10 09:22:34;;;;;;;13.25;9.52;;;;;;;;;;3585532;40;20037;-62
2021/06/10 09:25:08;;;;;;;11.88;8.15;;;;;;;;;;3588235;40;20029;-62
2021/06/10 09:27:44;;;;;;;10.23;8.23;;;;;;;;;;3586922;40;20046;-59
2021/06/10 09:30:09;;;;;;;10.75;9.10;;;;;;;;;;3585850;40;20044;-62
2021/06/10 09:32:46;;;;;;;10.45;9.10;;;;;;;;;;3585841;40;20039;-63
2021/06/10 09:35:12;;;;;;;11.27;8.43;;;;;;;;;;3585795;40;20040;-62
2021/06/10 09:37:41;;;;;;;10.30;9.30;;;;;;;;;;3586645;40;20047;-63
2021/06/10 09:40:13;;;;;;;10.45;8.70;;;;;;;;;;3583570;40;20055;-62
2021/06/10 09:42:40;;;;;;;10.55;9.45;;;;;;;;;;3585704;40;20111;-63
2021/06/10 09:45:09;;;;;;;10.77;9.68;;;;;;;;;;3584060;40;20044;-63
2021/06/10 09:47:39;;;;;;;9.55;8.05;;;;;;;;;;3583627;40;20435;-64
2021/06/10 09:50:15;;;;;;;7.80;7.00;;;;;;;;;;3580947;40;20628;-63
2021/06/10 09:52:54;;;;;;;9.88;8.65;;;;;;;;;;3585863;39;20044;-63
2021/06/10 09:55:33;;;;;;;10.80;7.93;;;;;;;;;;3584641;40;20145;-63
2021/06/10 09:58:06;;;;;;;8.10;7.30;;;;;;;;;;3583940;40;20633;-62
2021/06/10 10:00:31;;;;;;;10.85;8.70;;;;;;;;;;3583078;40;20041;-63
2021/06/10 10:02:57;;;;;;;9.93;7.28;;;;;;;;;;3584839;40;20280;-63
2021/06/10 10:05:25;;;;;;;9.73;7.80;;;;;;;;;;3586957;40;20039;-63
2021/06/10 10:07:54;;;;;;;19.98;7.60;;;;;;;;;;3585887;40;20052;-63
2021/06/10 10:10:21;;;;;;;29.20;9.45;;;;;;;;;;3587186;40;20047;-63
2021/06/10 10:12:49;;;;;;;8.57;7.18;;;;;;;;;;3585477;40;20078;-64
2021/06/10 10:15:16;;;;;;;10.25;8.25;;;;;;;;;;3586510;40;20037;-64
2021/06/10 10:17:41;;;;;;;8.82;7.20;;;;;;;;;;3584816;40;20070;-64
2021/06/10 10:20:09;;;;;;;10.35;8.70;;;;;;;;;;3584570;40;20052;-64
2021/06/10 10:22:36;;;;;;;11.15;8.32;;;;;;;;;;3586278;40;20073;-64
2021/06/10 10:25:04;;;;;;;9.57;8.10;;;;;;;;;;3586581;40;20039;-64
2021/06/10 10:27:30;;;;;;;15.18;7.80;;;;;;;;;;3585089;40;20256;-64
2021/06/10 10:29:55;;;;;;;10.05;7.68;;;;;;;;;;3585189;40;20036;-63
2021/06/10 10:32:24;;;;;;;10.52;8.82;;;;;;;;;;3584734;40;20032;-64
2021/06/10 10:34:50;;;;;;;8.02;7.25;;;;;;;;;;3587308;40;20360;-64
2021/06/10 10:37:21;;;;;;;8.25;7.28;;;;;;;;;;3586836;40;20047;-65
2021/06/10 10:39:47;;;;;;;10.07;8.55;;;;;;;;;;3584804;40;20062;-65
2021/06/10 10:42:35;;;;;;;8.93;7.32;;;;;;;;;;3584512;40;20328;-63
2021/06/10 10:45:10;;;;;;;10.55;8.20;;;;;;;;;;3576809;40;20376;-63
2021/06/10 10:48:08;;;;;;;9.55;8.15;;;;;;;;;;3586383;40;20067;-63
2021/06/10 10:50:45;;;;;;;18.05;9.98;;;;;;;;;;3585265;40;20669;-62
2021/06/10 10:53:22;;;;;;;9.23;8.32;;;;;;;;;;3585452;40;20053;-63
2021/06/10 10:56:04;;;;;;;8.02;7.22;;;;;;;;;;3586304;40;20055;-63
2021/06/10 10:58:29;;;;;;;10.90;9.38;;;;;;;;;;3586527;40;20150;-63
2021/06/10 11:00:59;;;;;;;10.57;8.27;;;;;;;;;;3586401;40;20360;-63
2021/06/10 11:03:28;;;;;;;11.57;9.30;;;;;;;;;;3586564;40;20054;-64
2021/06/10 11:05:55;;;;;;;13.30;9.57;;;;;;;;;;3586812;39;20044;-64
2021/06/10 11:08:26;;;;;;;10.25;8.63;;;;;;;;;;3577170;40;20044;-63
2021/06/10 11:10:57;;;;;;;10.57;8.65;;;;;;;;;;3584807;40;20048;-64
2021/06/10 11:13:26;;;;;;;10.55;8.38;;;;;;;;;;3569659;40;20040;-64
2021/06/10 11:15:54;;;;;;;13.27;9.05;;;;;;;;;;3586067;40;20047;-67
2021/06/10 11:18:40;;;;;;;9.00;8.07;;;;;;;;;;3584688;40;20430;-65
2021/06/10 11:21:05;;;;;;;10.18;9.02;;;;;;;;;;3584985;40;20064;-65
2021/06/10 11:23:31;;;;;;;10.27;9.02;;;;;;;;;;3584071;40;20077;-63
2021/06/10 11:25:58;;;;;;;10.23;9.23;;;;;;;;;;3584963;40;20045;-64
2021/06/10 11:28:27;;;;;;;10.43;9.30;;;;;;;;;;3584261;40;20384;-64
2021/06/10 11:31:11;;;;;;;12.30;9.55;;;;;;;;;;3584036;40;20818;-63
2021/06/10 11:33:37;;;;;;;10.60;9.32;;;;;;;;;;3585691;40;20509;-64
2021/06/10 11:36:05;;;;;;;10.27;8.40;;;;;;;;;;3583436;40;20137;-64
2021/06/10 11:38:37;;;;;;;11.07;8.18;;;;;;;;;;3586894;40;20083;-64
2021/06/10 11:41:08;;;;;;;10.23;8.98;;;;;;;;;;3586404;40;20043;-63
2021/06/10 11:43:37;;;;;;;9.98;8.98;;;;;;;;;;3584348;40;20038;-63
2021/06/10 11:46:04;;;;;;;10.57;9.47;;;;;;;;;;3587567;40;20032;-63
2021/06/10 11:49:04;;;;;;;10.40;8.63;;;;;;;;;;3586283;40;20298;-63
2021/06/10 11:51:32;;;;;;;9.95;7.53;;;;;;;;;;3559204;40;20033;-63
2021/06/10 11:54:13;;;;;;;9.07;7.18;;;;;;;;;;3586724;40;20036;-62
2021/06/10 11:56:41;;;;;;;9.30;8.07;;;;;;;;;;3586624;40;20498;-62
2021/06/10 11:59:24;;;;;;;8.27;7.47;;;;;;;;;;3585760;40;20036;-63
2021/06/10 12:02:22;;;;;;;8.27;7.47;;;;;;;;;;3584932;40;20449;-63
2021/06/10 12:04:47;;;;;;;12.10;9.32;;;;;;;;;;3585468;40;20326;-63
2021/06/10 12:07:17;;;;;;;10.85;9.80;;;;;;;;;;3577332;40;20076;-63
2021/06/10 12:09:51;;;;;;;;;;;;;;;;;;3584798;40;20072;-63
2021/06/10 12:12:38;;;;;;;8.20;7.38;;;;;;;;;;3585835;40;19932;-63
2021/06/10 12:15:05;;;;;;;10.80;7.72;;;;;;;;;;3584408;40;20141;-63
2021/06/10 12:17:48;;;;;;;7.82;7.03;;;;;;;;;;3584853;40;20048;-63
2021/06/10 12:20:17;;;;;;;8.05;6.95;;;;;;;;;;3584752;40;20032;-64
2021/06/10 12:22:44;;;;;;;8.25;6.95;;;;;;;;;;3583568;40;20040;-64
2021/06/10 12:25:18;;;;;;;9.05;7.43;;;;;;;;;;3575354;40;20288;-64
2021/06/10 12:27:44;;;;;;;10.45;7.50;;;;;;;;;;3585589;40;20044;-64
2021/06/10 12:30:25;;;;;;;10.20;7.82;;;;;;;;;;3585368;40;20029;-65
2021/06/10 12:32:51;;;;;;;11.43;7.25;;;;;;;;;;3585650;40;20056;-64
2021/06/10 12:35:20;;;;;;;11.15;6.35;;;;;;;;;;3585325;40;20044;-65
2021/06/10 12:37:51;;;;;;;8.80;6.95;;;;;;;;;;3584387;40;20053;-65
2021/06/10 12:40:16;;;;;;;11.75;6.97;;;;;;;;;;3584865;40;20389;-65
2021/06/10 12:43:28;;;;;;;10.95;7.20;;;;;;;;;;3584101;40;20053;-65
2021/06/10 12:46:04;;;;;;;7.55;6.75;;;;;;;;;;3583880;40;20418;-65
2021/06/10 12:48:31;;;;;;;8.70;7.90;;;;;;;;;;3584699;40;20154;-65
2021/06/10 12:51:18;;;;;;;9.10;7.93;;;;;;;;;;3582963;40;20043;-64
2021/06/10 12:54:04;;;;;;;9.50;7.40;;;;;;;;;;3586047;40;20037;-64
2021/06/10 12:56:58;;;;;;;10.15;7.70;;;;;;;;;;3585704;40;20052;-65
2021/06/10 12:59:28;;;;;;;10.75;8.25;;;;;;;;;;3583054;40;20032;-64
2021/06/10 13:02:04;;;;;;;9.23;7.15;;;;;;;;;;3577972;40;20461;-65
2021/06/10 13:04:31;;;;;;;12.90;7.07;;;;;;;;;;3586381;40;20036;-64
2021/06/10 13:06:57;;;;;;;8.18;7.35;;;;;;;;;;3585625;40;20373;-65
2021/06/10 13:09:23;;;;;;;8.25;7.45;;;;;;;;;;3585904;40;20044;-65
2021/06/10 13:12:18;;;;;;;9.07;8.18;;;;;;;;;;3585918;40;20032;-64
2021/06/10 13:14:45;;;;;;;9.15;7.75;;;;;;;;;;3586504;40;20083;-64
2021/06/10 13:17:12;;;;;;;8.80;7.90;;;;;;;;;;3585127;40;20134;-65
2021/06/10 13:19:45;;;;;;;11.18;8.40;;;;;;;;;;3584775;40;20056;-65
2021/06/10 13:22:12;;;;;;;9.23;8.13;;;;;;;;;;3585008;40;20028;-64
2021/06/10 13:24:47;;;;;;;8.60;7.70;;;;;;;;;;3585323;40;20036;-65
2021/06/10 13:27:21;;;;;;;9.85;8.07;;;;;;;;;;3586513;40;20121;-64
2021/06/10 13:29:55;;;;;;;8.23;7.10;;;;;;;;;;3576130;40;20162;-64
2021/06/10 13:32:26;;;;;;;9.57;7.95;;;;;;;;;;3585433;40;20041;-64
2021/06/10 13:35:01;;;;;;;9.68;7.60;;;;;;;;;;3585121;40;20044;-64
2021/06/10 13:37:27;;;;;;;8.25;7.43;;;;;;;;;;3583732;40;20036;-64
2021/06/10 13:39:52;;;;;;;8.05;7.25;;;;;;;;;;3583798;40;20284;-64
2021/06/10 13:42:20;;;;;;;9.20;6.97;;;;;;;;;;3585455;40;20040;-64
2021/06/10 13:44:45;;;;;;;7.80;6.97;;;;;;;;;;3585903;40;20125;-64
2021/06/10 13:47:11;;;;;;;8.68;6.90;;;;;;;;;;3584968;40;20044;-64
2021/06/10 13:49:36;;;;;;;7.85;6.75;;;;;;;;;;3584326;40;20094;-65
2021/06/10 13:52:02;;;;;;;8.18;6.30;;;;;;;;;;3585923;40;20408;-64
2021/06/10 13:54:29;;;;;;;8.20;6.25;;;;;;;;;;3585648;40;20044;-64
2021/06/10 13:56:54;;;;;;;6.95;6.25;;;;;;;;;;3584323;40;20056;-64
2021/06/10 13:59:20;;;;;;;8.68;6.05;;;;;;;;;;3583721;40;20032;-64
2021/06/10 14:01:45;;;;;;;11.82;6.13;;;;;;;;;;3585617;40;20032;-64
2021/06/10 14:04:11;;;;;;;7.80;6.97;;;;;;;;;;3585864;40;20029;-65
2021/06/10 14:06:36;;;;;;;7.68;6.97;;;;;;;;;;3584765;40;20052;-64
2021/06/10 14:09:03;;;;;;;7.22;6.22;;;;;;;;;;3587099;40;20411;-65
2021/06/10 14:11:28;;;;;;;8.35;6.45;;;;;;;;;;3586079;39;20040;-64
2021/06/10 14:13:53;;;;;;;7.47;6.03;;;;;;;;;;3579475;40;20040;-65
2021/06/10 14:16:20;;;;;;;8.05;5.85;;;;;;;;;;3587854;40;20032;-64
2021/06/10 14:18:47;;;;;;;5.97;5.35;;;;;;;;;;3585815;40;20037;-65
2021/06/10 14:21:13;;;;;;;7.38;6.03;;;;;;;;;;3586792;40;20307;-65
2021/06/10 14:23:38;;;;;;;6.82;5.82;;;;;;;;;;3587390;40;20051;-63
2021/06/10 14:26:04;;;;;;;8.68;5.93;;;;;;;;;;3586764;40;20029;-64
2021/06/10 14:28:29;;;;;;;8.27;6.18;;;;;;;;;;3584876;40;20021;-66
2021/06/10 14:33:40;;;;;;;12.77;7.00;;;;;;;;;;3586593;40;20040;-64
2021/06/10 14:36:06;;;;;;;7.72;6.63;;;;;;;;;;3576740;40;20044;-65
2021/06/10 14:38:32;;;;;;;10.18;6.25;;;;;;;;;;3584555;40;20131;-65
2021/06/10 14:40:58;;;;;;;12.02;6.57;;;;;;;;;;3587453;40;20032;-65